createdAt,value
2023-02-17T00:01:30.782Z,4.54
2023-02-17T00:03:39.086Z,4.55
2023-02-17T00:05:41.276Z,4.62
2023-02-17T00:07:43.870Z,4.66
2023-02-17T00:09:48.733Z,4.56
2023-02-17T00:11:51.334Z,4.72
2023-02-17T00:13:56.195Z,4.78
2023-02-17T00:16:01.084Z,4.82
2023-02-17T00:18:06.093Z,4.74
2023-02-17T00:20:08.582Z,4.70
2023-02-17T00:22:10.613Z,4.65
2023-02-17T00:24:12.560Z,4.68
2023-02-17T00:26:15.973Z,4.60
2023-02-17T00:28:21.135Z,4.64
2023-02-17T00:30:25.093Z,4.63
2023-02-17T00:32:28.266Z,4.69
2023-02-17T00:34:30.271Z,4.75
2023-02-17T00:36:32.513Z,4.80
2023-02-17T00:38:37.033Z,4.74
2023-02-17T00:40:39.301Z,4.66
2023-02-17T00:42:41.725Z,4.62
2023-02-17T00:44:44.144Z,4.69
2023-02-17T00:46:46.856Z,4.65
2023-02-17T00:48:49.962Z,4.62
2023-02-17T00:50:52.157Z,4.56
2023-02-17T00:52:54.649Z,4.60
2023-02-17T00:54:57.277Z,4.63
2023-02-17T00:56:59.398Z,4.66
2023-02-17T00:59:01.583Z,4.60
2023-02-17T01:01:04.392Z,4.64
2023-02-17T01:03:06.324Z,4.72
2023-02-17T01:05:08.740Z,4.66
2023-02-17T01:07:11.049Z,4.59
2023-02-17T01:09:14.898Z,4.55
2023-02-17T01:11:19.249Z,4.63
2023-02-17T01:13:21.798Z,4.63
2023-02-17T01:15:24.232Z,4.64
2023-02-17T01:17:26.371Z,4.48
2023-02-17T01:19:30.484Z,4.56
2023-02-17T01:21:33.226Z,4.53
2023-02-17T01:23:35.410Z,4.48
2023-02-17T01:25:41.693Z,4.47
2023-02-17T01:27:44.264Z,4.51
2023-02-17T01:29:46.814Z,4.53
2023-02-17T01:31:48.848Z,4.50
2023-02-17T01:33:50.844Z,4.58
2023-02-17T01:35:52.849Z,4.51
2023-02-17T01:37:55.378Z,4.58
2023-02-17T01:39:58.694Z,4.61
2023-02-17T01:42:01.337Z,4.59
2023-02-17T01:44:14.603Z,4.51
2023-02-17T01:46:16.655Z,4.50
2023-02-17T01:48:43.548Z,4.46
2023-02-17T01:51:02.886Z,4.41
2023-02-17T01:53:07.724Z,4.48
2023-02-17T01:55:15.545Z,4.45
2023-02-17T01:57:21.677Z,4.39
2023-02-17T01:59:24.035Z,4.41
2023-02-17T02:01:25.977Z,4.41
2023-02-17T02:03:32.509Z,4.37
2023-02-17T02:05:37.486Z,4.26
2023-02-17T02:07:43.200Z,4.35
2023-02-17T02:09:50.996Z,4.28
2023-02-17T02:11:53.138Z,4.35
2023-02-17T02:13:55.514Z,4.31
2023-02-17T02:16:22.175Z,4.08
2023-02-17T02:19:05.482Z,4.14
2023-02-17T02:21:48.868Z,4.19
2023-02-17T02:24:03.502Z,4.02
2023-02-17T02:26:05.733Z,4.17
2023-02-17T02:28:38.919Z,4.11
2023-02-17T02:31:09.576Z,4.06
2023-02-17T02:33:32.813Z,4.12
2023-02-17T02:35:51.595Z,4.06
2023-02-17T02:37:57.460Z,3.99
2023-02-17T02:40:05.942Z,4.08
2023-02-17T02:42:13.834Z,4.04
2023-02-17T02:44:20.946Z,4.06
2023-02-17T02:46:22.932Z,4.11
2023-02-17T02:48:26.462Z,4.15
2023-02-17T02:50:36.939Z,4.11
2023-02-17T02:53:06.220Z,4.06
2023-02-17T02:55:17.219Z,4.18
2023-02-17T02:57:48.834Z,4.11
2023-02-17T03:00:13.678Z,4.03
2023-02-17T03:02:27.522Z,4.09
2023-02-17T03:05:14.948Z,3.97
2023-02-17T03:07:30.440Z,3.98
2023-02-17T03:09:33.255Z,4.01
2023-02-17T03:11:35.983Z,4.04
2023-02-17T03:13:41.135Z,4.05
2023-02-17T03:15:46.622Z,4.02
2023-02-17T03:17:48.594Z,4.00
2023-02-17T03:19:50.912Z,4.06
2023-02-17T03:22:01.812Z,3.97
2023-02-17T03:24:04.606Z,4.07
2023-02-17T03:26:07.180Z,4.03
2023-02-17T03:28:09.519Z,4.05
2023-02-17T03:30:11.966Z,4.02
2023-02-17T03:32:14.137Z,3.93
2023-02-17T03:34:16.266Z,3.89
2023-02-17T03:36:18.377Z,3.96
2023-02-17T03:38:20.398Z,3.95
2023-02-17T03:40:22.413Z,3.87
2023-02-17T03:42:27.238Z,3.90
2023-02-17T03:44:29.362Z,3.91
2023-02-17T03:46:31.420Z,3.74
2023-02-17T03:48:33.503Z,3.76
2023-02-17T03:50:35.930Z,3.82
2023-02-17T03:52:38.228Z,3.82
2023-02-17T03:54:41.575Z,3.79
2023-02-17T03:56:43.694Z,3.70
2023-02-17T03:58:46.231Z,3.71
2023-02-17T04:00:48.402Z,3.62
2023-02-17T04:02:50.576Z,3.66
2023-02-17T04:04:52.658Z,3.62
2023-02-17T04:06:54.483Z,3.51
2023-02-17T04:08:58.805Z,3.58
2023-02-17T04:11:02.648Z,3.61
2023-02-17T04:13:05.136Z,3.64
2023-02-17T04:15:07.881Z,3.59
2023-02-17T04:17:10.022Z,3.55
2023-02-17T04:19:14.083Z,3.41
2023-02-17T04:21:16.370Z,3.54
2023-02-17T04:23:20.892Z,3.58
2023-02-17T04:25:23.684Z,3.49
2023-02-17T04:27:25.885Z,3.59
2023-02-17T04:29:27.810Z,3.57
2023-02-17T04:31:30.039Z,3.59
2023-02-17T04:33:32.424Z,3.59
2023-02-17T04:35:34.577Z,3.55
2023-02-17T04:37:36.876Z,3.53
2023-02-17T04:39:39.327Z,3.35
2023-02-17T04:41:41.371Z,3.46
2023-02-17T04:43:43.457Z,3.49
2023-02-17T04:45:45.887Z,3.44
2023-02-17T04:47:47.968Z,3.45
2023-02-17T04:49:49.955Z,3.48
2023-02-17T04:51:52.136Z,3.47
2023-02-17T04:53:54.875Z,3.43
2023-02-17T04:55:56.877Z,3.36
2023-02-17T04:57:58.880Z,3.37
2023-02-17T05:00:01.102Z,3.37
2023-02-17T05:02:03.264Z,3.34
2023-02-17T05:04:05.976Z,3.37
2023-02-17T05:06:08.165Z,3.34
2023-02-17T05:08:13.020Z,3.38
2023-02-17T05:10:16.981Z,3.29
2023-02-17T05:12:18.990Z,3.32
2023-02-17T05:14:21.058Z,3.21
2023-02-17T05:16:23.141Z,3.28
2023-02-17T05:18:27.903Z,3.23
2023-02-17T05:20:30.625Z,3.25
2023-02-17T05:22:32.728Z,3.20
2023-02-17T05:24:34.980Z,3.12
2023-02-17T05:26:37.053Z,3.15
2023-02-17T05:28:39.208Z,3.09
2023-02-17T05:30:41.269Z,3.14
2023-02-17T05:32:43.288Z,3.14
2023-02-17T05:34:45.466Z,3.02
2023-02-17T05:36:47.783Z,3.11
2023-02-17T05:38:51.299Z,2.98
2023-02-17T05:40:56.626Z,3.08
2023-02-17T05:42:58.938Z,3.08
2023-02-17T05:45:01.284Z,3.06
2023-02-17T05:47:03.483Z,3.12
2023-02-17T05:49:05.780Z,3.09
2023-02-17T05:51:08.030Z,3.09
2023-02-17T05:53:10.224Z,3.11
2023-02-17T05:55:12.156Z,3.04
2023-02-17T05:57:14.266Z,3.03
2023-02-17T05:59:16.852Z,3.11
2023-02-17T06:01:19.077Z,3.19
2023-02-17T06:03:21.168Z,3.16
2023-02-17T06:05:23.554Z,3.16
2023-02-17T06:07:25.867Z,3.24
2023-02-17T06:09:27.948Z,3.24
2023-02-17T06:11:30.167Z,3.19
2023-02-17T06:13:32.408Z,3.19
2023-02-17T06:15:34.684Z,3.25
2023-02-17T06:17:37.207Z,3.30
2023-02-17T06:19:41.911Z,3.16
2023-02-17T06:21:44.204Z,3.31
2023-02-17T06:23:47.407Z,3.39
2023-02-17T06:25:49.606Z,3.43
2023-02-17T06:27:51.600Z,3.58
2023-02-17T06:29:53.824Z,3.77
2023-02-17T06:31:56.019Z,3.87
2023-02-17T06:33:58.239Z,3.93
2023-02-17T06:36:00.167Z,3.98
2023-02-17T06:38:02.358Z,4.00
2023-02-17T06:40:05.126Z,4.16
2023-02-17T06:42:07.424Z,4.19
2023-02-17T06:44:09.519Z,4.20
2023-02-17T06:46:12.180Z,4.35
2023-02-17T06:48:14.389Z,4.44
2023-02-17T06:50:18.643Z,4.50
2023-02-17T06:52:20.654Z,4.54
2023-02-17T06:54:22.884Z,4.65
2023-02-17T06:56:24.872Z,4.66
2023-02-17T06:58:27.367Z,4.71
2023-02-17T07:00:29.430Z,4.69
2023-02-17T07:02:31.731Z,4.83
2023-02-17T07:04:36.715Z,5.01
2023-02-17T07:06:38.938Z,5.19
2023-02-17T07:08:41.084Z,5.38
2023-02-17T07:10:43.207Z,5.52
2023-02-17T07:12:45.252Z,5.66
2023-02-17T07:14:47.491Z,5.73
2023-02-17T07:16:49.714Z,5.83
2023-02-17T07:18:52.273Z,5.95
2023-02-17T07:20:54.501Z,6.05
2023-02-17T07:22:57.134Z,6.10
2023-02-17T07:24:59.224Z,6.14
2023-02-17T07:27:01.493Z,6.12
2023-02-17T07:29:04.590Z,6.16
2023-02-17T07:31:12.399Z,6.22
2023-02-17T07:33:14.534Z,6.29
2023-02-17T07:35:17.049Z,6.32
2023-02-17T07:37:21.956Z,6.32
2023-02-17T07:39:24.047Z,6.43
2023-02-17T07:41:28.915Z,6.56
2023-02-17T07:43:31.140Z,6.72
2023-02-17T07:45:33.684Z,6.83
2023-02-17T07:47:38.096Z,6.92
2023-02-17T07:49:40.402Z,7.02
2023-02-17T07:51:42.552Z,7.06
2023-02-17T07:53:44.579Z,7.15
2023-02-17T07:55:46.923Z,7.17
2023-02-17T07:57:48.876Z,7.22
2023-02-17T07:59:50.932Z,7.31
2023-02-17T08:01:52.995Z,7.34
2023-02-17T08:03:57.108Z,7.38
2023-02-17T08:05:59.097Z,7.38
2023-02-17T08:08:19.784Z,7.46
2023-02-17T08:10:40.123Z,7.58
2023-02-17T08:13:00.403Z,7.67
2023-02-17T08:15:02.552Z,7.74
2023-02-17T08:17:05.886Z,7.84
2023-02-17T08:19:08.589Z,7.92
2023-02-17T08:21:10.731Z,8.00
2023-02-17T08:23:12.822Z,8.06
2023-02-17T08:25:15.143Z,8.14
2023-02-17T08:27:18.286Z,8.18
2023-02-17T08:29:21.189Z,8.20
2023-02-17T08:31:26.415Z,8.22
2023-02-17T08:33:28.790Z,8.19
2023-02-17T08:35:31.009Z,8.24
2023-02-17T08:37:33.329Z,8.29
2023-02-17T08:39:35.829Z,8.32
2023-02-17T08:41:39.467Z,8.35
2023-02-17T08:43:42.475Z,8.33
2023-02-17T08:45:46.166Z,8.37
2023-02-17T08:47:51.188Z,8.40
2023-02-17T08:49:53.425Z,8.44
2023-02-17T08:51:55.497Z,8.48
2023-02-17T08:54:00.919Z,8.44
2023-02-17T08:56:02.998Z,8.45
2023-02-17T08:58:05.160Z,8.42
2023-02-17T09:00:09.674Z,8.50
2023-02-17T09:02:11.979Z,8.57
2023-02-17T09:04:15.419Z,8.59
2023-02-17T09:06:18.062Z,8.62
2023-02-17T09:08:20.228Z,8.62
2023-02-17T09:10:22.871Z,8.63
2023-02-17T09:12:24.970Z,8.69
2023-02-17T09:14:27.922Z,8.74
2023-02-17T09:16:31.168Z,8.76
2023-02-17T09:18:36.370Z,8.81
2023-02-17T09:20:39.735Z,8.83
2023-02-17T09:22:41.835Z,8.88
2023-02-17T09:24:44.659Z,8.88
2023-02-17T09:26:46.599Z,8.92
2023-02-17T09:28:49.608Z,8.96
2023-02-17T09:30:51.889Z,8.99
2023-02-17T09:32:54.077Z,9.00
2023-02-17T09:34:56.233Z,8.96
2023-02-17T09:36:58.595Z,8.99
2023-02-17T09:39:01.946Z,8.96
2023-02-17T09:41:18.143Z,9.01
2023-02-17T09:43:27.047Z,8.99
2023-02-17T09:45:34.905Z,9.05
2023-02-17T09:47:54.049Z,9.07
2023-02-17T09:50:44.437Z,9.10
2023-02-17T09:52:53.700Z,9.14
2023-02-17T09:55:10.741Z,9.15
2023-02-17T09:57:19.849Z,9.19
2023-02-17T09:59:32.347Z,9.20
2023-02-17T10:01:35.858Z,9.26
2023-02-17T10:03:44.372Z,9.24
2023-02-17T10:05:59.409Z,9.21
2023-02-17T10:08:24.306Z,9.25
2023-02-17T10:10:48.902Z,9.33
2023-02-17T10:12:56.323Z,9.36
2023-02-17T10:15:03.801Z,9.40
2023-02-17T10:17:28.521Z,9.45
2023-02-17T10:19:41.488Z,9.46
2023-02-17T10:21:57.639Z,9.47
2023-02-17T10:23:59.806Z,9.49
2023-02-17T10:26:08.787Z,9.47
2023-02-17T10:28:18.801Z,9.45
2023-02-17T10:30:38.236Z,9.46
2023-02-17T10:33:02.687Z,9.49
2023-02-17T10:35:13.765Z,9.51
2023-02-17T10:37:32.532Z,9.45
2023-02-17T10:39:49.154Z,9.45
2023-02-17T10:41:52.994Z,9.50
2023-02-17T10:43:55.812Z,9.48
2023-02-17T10:45:59.986Z,9.49
2023-02-17T10:48:04.037Z,9.46
2023-02-17T10:50:14.559Z,9.50
2023-02-17T10:52:21.121Z,9.52
2023-02-17T10:55:06.513Z,9.50
2023-02-17T10:57:19.464Z,9.54
2023-02-17T10:59:30.540Z,9.55
2023-02-17T11:01:34.158Z,9.53
2023-02-17T11:03:41.319Z,9.54
2023-02-17T11:05:43.655Z,9.53
2023-02-17T11:07:46.194Z,9.51
2023-02-17T11:09:56.162Z,9.55
2023-02-17T11:12:09.106Z,9.63
2023-02-17T11:14:23.959Z,9.61
2023-02-17T11:16:29.609Z,9.53
2023-02-17T11:18:38.465Z,9.64
2023-02-17T11:20:40.794Z,9.67
2023-02-17T11:22:49.288Z,9.67
2023-02-17T11:25:03.794Z,9.70
2023-02-17T11:27:11.919Z,9.73
2023-02-17T11:29:21.464Z,9.72
2023-02-17T11:31:27.077Z,9.73
2023-02-17T11:33:40.631Z,9.75
2023-02-17T11:35:42.528Z,9.78
2023-02-17T11:37:44.622Z,9.79
2023-02-17T11:39:49.208Z,9.83
2023-02-17T11:41:51.340Z,9.83
2023-02-17T11:43:59.472Z,9.81
2023-02-17T11:46:28.753Z,9.83
2023-02-17T11:48:33.618Z,9.86
2023-02-17T11:50:48.539Z,9.85
2023-02-17T11:53:00.021Z,9.82
2023-02-17T11:55:27.049Z,9.84
2023-02-17T11:57:45.341Z,9.84
2023-02-17T12:00:22.782Z,9.84
2023-02-17T12:02:46.902Z,9.78
2023-02-17T12:05:21.233Z,9.81
2023-02-17T12:07:40.408Z,9.84
2023-02-17T12:10:10.367Z,9.81
2023-02-17T12:12:54.394Z,9.84
2023-02-17T12:15:02.295Z,9.86
2023-02-17T12:17:45.976Z,9.84
2023-02-17T12:19:50.711Z,9.93
2023-02-17T12:22:07.737Z,9.91
2023-02-17T12:24:19.239Z,9.87
2023-02-17T12:26:42.296Z,9.95
2023-02-17T12:29:09.390Z,9.98
2023-02-17T12:31:36.543Z,10.03
2023-02-17T12:34:15.495Z,10.06
2023-02-17T12:36:25.767Z,10.09
2023-02-17T12:38:55.513Z,10.05
2023-02-17T12:41:08.535Z,10.07
2023-02-17T12:43:36.696Z,10.09
2023-02-17T12:45:45.810Z,10.10
2023-02-17T12:47:57.489Z,10.17
2023-02-17T12:50:14.942Z,10.21
2023-02-17T12:52:29.451Z,10.21
2023-02-17T12:54:42.011Z,10.21
2023-02-17T12:56:55.294Z,10.22
2023-02-17T12:59:16.085Z,10.19
2023-02-17T13:01:21.867Z,10.24
2023-02-17T13:03:25.027Z,10.23
2023-02-17T13:05:55.283Z,10.26
2023-02-17T13:08:04.591Z,10.31
2023-02-17T13:10:08.113Z,10.34
2023-02-17T13:12:30.404Z,10.37
2023-02-17T13:14:44.594Z,10.34
2023-02-17T13:16:47.311Z,10.32
2023-02-17T13:18:52.349Z,10.32
2023-02-17T13:20:56.114Z,10.33
2023-02-17T13:23:11.578Z,10.21
2023-02-17T13:25:37.337Z,10.23
2023-02-17T13:27:41.222Z,10.26
2023-02-17T13:29:43.428Z,10.32
2023-02-17T13:31:53.055Z,10.31
2023-02-17T13:33:59.778Z,10.34
2023-02-17T13:36:15.688Z,10.29
2023-02-17T13:38:29.824Z,10.30
2023-02-17T13:40:38.796Z,10.32
2023-02-17T13:42:44.390Z,10.37
2023-02-17T13:44:48.843Z,10.41
2023-02-17T13:46:51.733Z,10.42
2023-02-17T13:49:06.902Z,10.40
2023-02-17T13:51:26.130Z,10.42
2023-02-17T13:53:28.157Z,10.49
2023-02-17T13:55:30.628Z,10.48
2023-02-17T13:57:37.105Z,10.49
2023-02-17T13:59:39.508Z,10.51
2023-02-17T14:01:42.900Z,10.50
2023-02-17T14:03:53.111Z,10.49
2023-02-17T14:06:00.494Z,10.54
2023-02-17T14:08:14.495Z,10.54
2023-02-17T14:10:22.107Z,10.60
2023-02-17T14:12:26.092Z,10.59
2023-02-17T14:14:39.966Z,10.59
2023-02-17T14:16:46.982Z,10.62
2023-02-17T14:18:49.152Z,10.65
2023-02-17T14:21:00.712Z,10.63
2023-02-17T14:23:07.159Z,10.67
2023-02-17T14:25:16.090Z,10.71
2023-02-17T14:27:17.996Z,10.68
2023-02-17T14:29:20.618Z,10.69
2023-02-17T14:31:27.130Z,10.74
2023-02-17T14:33:29.268Z,10.76
2023-02-17T14:35:35.391Z,10.79
2023-02-17T14:37:38.637Z,10.72
2023-02-17T14:39:40.900Z,10.74
2023-02-17T14:41:44.013Z,10.75
2023-02-17T14:43:46.938Z,10.75
2023-02-17T14:45:50.487Z,10.76
2023-02-17T14:47:52.696Z,10.77
2023-02-17T14:49:54.952Z,10.76
2023-02-17T14:51:56.976Z,10.77
2023-02-17T14:53:59.072Z,10.76
2023-02-17T14:56:10.566Z,10.75
2023-02-17T14:58:19.738Z,10.73
2023-02-17T15:00:22.397Z,10.71
2023-02-17T15:02:24.733Z,10.71
2023-02-17T15:04:26.902Z,10.71
2023-02-17T15:06:50.843Z,10.67
2023-02-17T15:08:52.988Z,10.66
2023-02-17T15:10:55.664Z,10.70
2023-02-17T15:12:58.047Z,10.68
2023-02-17T15:15:00.550Z,10.68
2023-02-17T15:17:02.556Z,10.69
2023-02-17T15:19:04.707Z,10.70
2023-02-17T15:21:25.697Z,10.67
2023-02-17T15:23:31.983Z,10.68
2023-02-17T15:25:35.714Z,10.64
2023-02-17T15:27:37.778Z,10.61
2023-02-17T15:29:40.189Z,10.64
2023-02-17T15:31:42.615Z,10.58
2023-02-17T15:33:45.168Z,10.60
2023-02-17T15:35:51.015Z,10.62
2023-02-17T15:37:54.260Z,10.63
2023-02-17T15:39:59.088Z,10.64
2023-02-17T15:42:07.547Z,10.65
2023-02-17T15:44:21.956Z,10.62
2023-02-17T15:46:32.210Z,10.63
2023-02-17T15:48:34.881Z,10.62
2023-02-17T15:50:37.114Z,10.62
2023-02-17T15:52:39.270Z,10.60
2023-02-17T15:54:42.926Z,10.61
2023-02-17T15:56:51.230Z,10.61
2023-02-17T15:58:53.991Z,10.62
2023-02-17T16:01:04.157Z,10.57
2023-02-17T16:03:08.537Z,10.60
2023-02-17T16:05:22.888Z,10.44
2023-02-17T16:07:25.004Z,10.56
2023-02-17T16:09:29.271Z,10.56
2023-02-17T16:11:32.213Z,10.59
2023-02-17T16:13:34.120Z,10.60
2023-02-17T16:15:37.594Z,10.58
2023-02-17T16:17:39.615Z,10.60
2023-02-17T16:19:41.946Z,10.62
2023-02-17T16:21:44.100Z,10.60
2023-02-17T16:23:46.361Z,10.60
2023-02-17T16:25:50.598Z,10.63
2023-02-17T16:27:53.651Z,10.63
2023-02-17T16:29:55.817Z,10.61
2023-02-17T16:31:57.982Z,10.61
2023-02-17T16:34:00.576Z,10.60
2023-02-17T16:36:02.845Z,10.58
2023-02-17T16:38:16.031Z,10.49
2023-02-17T16:51:35.370Z,10.46
2023-02-17T16:53:37.493Z,10.44
2023-02-17T16:55:39.509Z,10.38
2023-02-17T16:57:42.979Z,10.40
2023-02-17T16:59:45.742Z,10.39
2023-02-17T17:01:48.586Z,10.38
2023-02-17T17:03:51.323Z,10.38
2023-02-17T17:05:53.688Z,10.38
2023-02-17T17:07:56.598Z,10.38
2023-02-17T17:10:15.299Z,10.42
2023-02-17T17:12:18.534Z,10.44
2023-02-17T17:14:21.888Z,10.45
2023-02-17T17:16:34.158Z,10.41
2023-02-17T17:18:36.150Z,10.46
2023-02-17T17:20:41.688Z,10.46
2023-02-17T17:22:43.961Z,10.43
2023-02-17T17:24:46.203Z,10.43
2023-02-17T17:26:50.332Z,10.39
2023-02-17T17:28:53.123Z,10.38
2023-02-17T17:30:55.221Z,10.36
2023-02-17T17:32:57.317Z,10.35
2023-02-17T17:34:59.265Z,10.30
2023-02-17T17:37:01.657Z,10.28
2023-02-17T17:39:08.406Z,10.20
2023-02-17T17:41:13.473Z,10.23
2023-02-17T17:43:16.765Z,10.29
2023-02-17T17:45:19.310Z,10.29
2023-02-17T17:47:29.943Z,10.28
2023-02-17T17:49:32.633Z,10.31
2023-02-17T17:51:34.769Z,10.34
2023-02-17T17:53:36.939Z,10.37
2023-02-17T17:55:41.523Z,10.32
2023-02-17T17:57:43.589Z,10.27
2023-02-17T17:59:46.734Z,10.21
2023-02-17T18:01:48.848Z,10.17
2023-02-17T18:03:51.578Z,10.16
2023-02-17T18:05:53.718Z,10.15
2023-02-17T18:07:56.636Z,10.14
2023-02-17T18:09:59.535Z,10.14
2023-02-17T18:12:07.566Z,10.08
2023-02-17T18:14:13.853Z,10.05
2023-02-17T18:16:16.636Z,10.14
2023-02-17T18:18:19.462Z,10.16
2023-02-17T18:20:21.898Z,10.16
2023-02-17T18:22:24.267Z,10.16
2023-02-17T18:24:26.265Z,10.15
2023-02-17T18:26:29.474Z,10.16
2023-02-17T18:28:31.893Z,10.19
2023-02-17T18:30:36.710Z,10.14
2023-02-17T18:32:44.048Z,10.08
2023-02-17T18:34:46.248Z,10.12
2023-02-17T18:36:48.371Z,10.13
2023-02-17T18:38:51.137Z,10.11
2023-02-17T18:40:53.213Z,10.15
2023-02-17T18:42:55.829Z,10.15
2023-02-17T18:44:57.953Z,10.16
2023-02-17T18:47:00.838Z,10.15
2023-02-17T18:49:03.029Z,10.17
2023-02-17T18:51:10.434Z,10.19
2023-02-17T18:53:12.879Z,10.19
2023-02-17T18:55:15.555Z,10.20
2023-02-17T18:57:17.489Z,10.24
2023-02-17T18:59:19.643Z,10.25
2023-02-17T19:01:23.141Z,10.18
2023-02-17T19:03:29.749Z,10.22
2023-02-17T19:05:32.373Z,10.21
2023-02-17T19:07:35.032Z,10.23
2023-02-17T19:09:39.690Z,10.24
2023-02-17T19:11:42.138Z,10.24
2023-02-17T19:13:44.462Z,10.25
2023-02-17T19:15:46.507Z,10.25
2023-02-17T19:17:48.968Z,10.29
2023-02-17T19:19:52.492Z,10.27
2023-02-17T19:21:54.761Z,10.33
2023-02-17T19:23:56.748Z,10.36
2023-02-17T19:26:01.468Z,10.42
2023-02-17T19:28:06.452Z,10.47
2023-02-17T19:30:10.591Z,10.48
2023-02-17T19:32:13.185Z,10.47
2023-02-17T19:34:17.682Z,10.44
2023-02-17T19:36:22.639Z,10.52
2023-02-17T19:38:25.701Z,10.53
2023-02-17T19:40:27.719Z,10.61
2023-02-17T19:42:30.515Z,10.63
2023-02-17T19:44:32.775Z,10.68
2023-02-17T19:46:34.834Z,10.72
2023-02-17T19:48:36.759Z,10.69
2023-02-17T19:50:39.257Z,10.67
2023-02-17T19:52:41.225Z,10.66
2023-02-17T19:54:43.548Z,10.70
2023-02-17T19:56:49.178Z,10.71
2023-02-17T19:58:52.508Z,10.73
2023-02-17T20:00:54.409Z,10.66
2023-02-17T20:02:56.523Z,10.62
2023-02-17T20:04:58.720Z,10.62
2023-02-17T20:07:03.383Z,10.64
2023-02-17T20:09:08.785Z,10.60
2023-02-17T20:11:11.904Z,10.51
2023-02-17T20:13:13.767Z,10.56
2023-02-17T20:15:16.065Z,10.62
2023-02-17T20:17:18.083Z,10.64
2023-02-17T20:19:20.106Z,10.70
2023-02-17T20:21:26.254Z,10.72
2023-02-17T20:23:31.098Z,10.73
2023-02-17T20:25:33.516Z,10.75
2023-02-17T20:27:35.688Z,10.75
2023-02-17T20:29:38.068Z,10.80
2023-02-17T20:31:42.002Z,10.82
2023-02-17T20:33:47.589Z,10.84
2023-02-17T20:35:49.825Z,10.86
2023-02-17T20:37:53.053Z,10.84
2023-02-17T20:39:55.185Z,10.87
2023-02-17T20:41:57.539Z,10.85
2023-02-17T20:44:02.998Z,10.88
2023-02-17T20:46:05.618Z,10.85
2023-02-17T20:48:07.927Z,10.95
2023-02-17T20:50:14.764Z,10.97
2023-02-17T20:52:16.872Z,10.98
2023-02-17T20:54:18.978Z,11.00
2023-02-17T20:56:25.745Z,10.99
2023-02-17T20:58:29.122Z,11.01
2023-02-17T21:00:31.757Z,10.98
2023-02-17T21:02:34.230Z,11.01
2023-02-17T21:04:36.280Z,11.04
2023-02-17T21:06:41.466Z,11.02
2023-02-17T21:08:43.943Z,11.04
2023-02-17T21:10:46.540Z,11.03
2023-02-17T21:12:49.068Z,11.05
2023-02-17T21:14:51.550Z,11.06
2023-02-17T21:16:53.952Z,11.06
2023-02-17T21:18:55.970Z,11.10
2023-02-17T21:20:57.925Z,11.13
2023-02-17T21:23:01.168Z,11.13
2023-02-17T21:25:04.525Z,11.19
2023-02-17T21:27:06.503Z,11.21
2023-02-17T21:29:08.427Z,11.23
2023-02-17T21:31:10.978Z,11.24
2023-02-17T21:33:13.601Z,11.21
2023-02-17T21:35:15.733Z,11.22
2023-02-17T21:37:18.173Z,11.25
2023-02-17T21:39:21.435Z,11.29
2023-02-17T21:41:25.128Z,11.29
2023-02-17T21:43:45.985Z,11.28
2023-02-17T21:45:48.081Z,11.25
2023-02-17T21:47:50.141Z,11.26
2023-02-17T21:49:54.604Z,11.24
2023-02-17T21:51:56.715Z,11.26
2023-02-17T21:53:59.424Z,11.26
2023-02-17T21:56:02.610Z,11.26
2023-02-17T21:58:04.537Z,11.27
2023-02-17T22:00:07.236Z,11.30
2023-02-17T22:02:14.081Z,11.28
2023-02-17T22:04:16.187Z,11.31
2023-02-17T22:06:20.890Z,11.29
2023-02-17T22:08:24.058Z,11.25
2023-02-17T22:10:26.071Z,11.24
2023-02-17T22:12:28.314Z,11.27
2023-02-17T22:14:30.463Z,11.27
2023-02-17T22:16:35.271Z,11.28
2023-02-17T22:18:37.662Z,11.26
2023-02-17T22:20:44.245Z,11.21
2023-02-17T22:22:46.208Z,11.17
2023-02-17T22:24:48.215Z,11.16
2023-02-17T22:26:50.632Z,11.10
2023-02-17T22:28:54.305Z,11.09
2023-02-17T22:30:56.414Z,11.10
2023-02-17T22:33:02.401Z,11.11
2023-02-17T22:35:05.620Z,11.06
2023-02-17T22:37:07.631Z,11.04
2023-02-17T22:39:09.660Z,11.03
2023-02-17T22:41:14.678Z,11.00
2023-02-17T22:43:16.621Z,11.03
2023-02-17T22:45:18.722Z,10.98
2023-02-17T22:47:20.757Z,11.00
2023-02-17T22:49:22.778Z,10.99
2023-02-17T22:51:36.103Z,10.93
2023-02-17T22:53:41.136Z,10.82
2023-02-17T22:55:43.509Z,10.85
2023-02-17T22:57:47.461Z,10.84
2023-02-17T22:59:49.702Z,10.83
2023-02-17T23:01:51.713Z,10.85
2023-02-17T23:03:56.657Z,10.87
2023-02-17T23:06:04.230Z,10.85
2023-02-17T23:08:06.196Z,10.92
2023-02-17T23:10:08.952Z,10.92
2023-02-17T23:12:11.013Z,10.92
2023-02-17T23:14:14.267Z,10.86
2023-02-17T23:16:21.678Z,10.89
2023-02-17T23:18:24.064Z,10.88
2023-02-17T23:20:26.017Z,10.89
2023-02-17T23:22:27.896Z,10.88
2023-02-17T23:24:30.029Z,10.86
2023-02-17T23:26:32.117Z,10.86
2023-02-17T23:28:34.668Z,10.84
2023-02-17T23:30:37.214Z,10.80
2023-02-17T23:32:39.425Z,10.77
2023-02-17T23:34:41.917Z,10.79
2023-02-17T23:36:45.843Z,10.79
2023-02-17T23:38:48.177Z,10.76
2023-02-17T23:40:52.208Z,10.80
2023-02-17T23:42:54.653Z,10.80
2023-02-17T23:44:57.002Z,10.84
2023-02-17T23:47:00.606Z,10.82
2023-02-17T23:49:06.237Z,10.83
2023-02-17T23:51:08.370Z,10.74
2023-02-17T23:53:10.578Z,10.92
2023-02-17T23:55:15.354Z,10.88
2023-02-17T23:57:17.566Z,10.89
2023-02-17T23:59:19.668Z,10.92
